Terminal Aerodrome Forecast
Issued by NWS

Home | Current Version | Previous Version | Text Only | Print | Product List | Glossary On
Versions: 1 2 3 4 5 6 7 8 9 10 11 12 13 14 15 16
000
FTUS44 KEPZ 222338
TAFDMN
TAF
KDMN 222338Z 2300/2324 06012G22KT P6SM VCTS SCT110CB SCT150 BKN250
     FM230100 28011KT P6SM SCT110 SCT150 BKN250
     FM230300 31012KT P6SM FEW110 FEW150 SCT250
     FM231900 27012G22KT P6SM SCT110 SCT150 BKN250=

USA.gov is the U.S. government's official web portal to all federal, state and local government web resources and services.